Rock Creek, OH

8:53 PM EST on December 28, 2014 (GMT -0500)
Port Meadville | Change Station
CLOSE
Current Station
Airport
Location: Meadville,
Elevation: 1401 ft
Nearby Weather Stations

Elev 1401 ft 41.63 °N, 80.21 °W | Updated 19 minutes ago

Overcast
Overcast
31 °F
Feels Like 25 °F
N
6
Wind Variable Wind from West

Today
High -- | Low -- °F
--% Chance of Precip.
Yesterday
High -- | Low -- °F
Precip. -- in
7:49 AM 5:00 PM
First Quarter, 53% visible
Pressure 30.10 in
Visibility 10.0 miles
Clouds Few 900 ft
Scattered Clouds 1500 ft
Mostly Cloudy 3500 ft
Windchill 25 °F
Dew Point 27 °F
Humidity 85%
Rainfall 0.44 in
Snow Depth Not available.
UV 0 out of 12
Pollen .10 out of 12
Air Quality Not available.
Flu Activity Not available.
SPECI KGKJ 290134Z AUTO 26005KT 10SM FEW009 SCT015 BKN035 M01/M03 A3010 RMK AO2 T10061028 TSNO

More Conditions Fewer Conditions

Pressure 30.10 in
Visibility 10.0 miles
Clouds Few 900 ft
Scattered Clouds 1500 ft
Mostly Cloudy 3500 ft
Windchill 25 °F
Dew Point 27 °F
Humidity 85%
Rainfall 0.44 in
Snow Depth Not available.
UV 0 out of 12
Pollen .10 out of 12
Air Quality Not available.
Flu Activity Not available.
SPECI KGKJ 290134Z AUTO 26005KT 10SM FEW009 SCT015 BKN035 M01/M03 A3010 RMK AO2 T10061028 TSNO

More Conditions Fewer Conditions

10-Day Weather Forecast

Almanac

Astronomy

Dec. 28, 2014 Rise Set
Actual Time
Civil Twilight
Nautical Twilight
Astronomical Twilight
Moon
Length of Visible Light
Length of Day
Tomorrow will be .
, % of the Moon is Illuminated

Today's Extremes

State Highs State Lows

Community

WunderPhotos

Upload Photos

1,781,489 photos uploaded!

WunderBlogs® & News

Nearby

Air Quality

  Air Quality AQ Index Pollutant
Not available.

Snow Depth

Station Depth Elevation

Earthquake Activity

City Distance Mag. Time & Date
Minimum magnitude displayed is 2.5.

Coastal Water Temperatures

Place Temperature

Nearby Weather Stations